sensor_id;sensor_type;location;lat;lon;timestamp;pressure;altitude;pressure_sealevel;temperature;humidity
77517;BME280;66628;53.946;27.634;2023-02-28T00:00:47;100098.007812;;;19.719999;23.336914
77517;BME280;66628;53.946;27.634;2023-02-28T00:01:47;100094.953125;;;19.660000;23.333008
77517;BME280;66628;53.946;27.634;2023-02-28T00:02:47;100096.500000;;;19.750000;23.674805
77517;BME280;66628;53.946;27.634;2023-02-28T00:03:47;100093.343750;;;19.660000;23.591797
77517;BME280;66628;53.946;27.634;2023-02-28T00:04:47;100095.320312;;;19.700001;23.470703
77517;BME280;66628;53.946;27.634;2023-02-28T00:05:47;100092.187500;;;19.680000;23.413086
77517;BME280;66628;53.946;27.634;2023-02-28T00:06:47;100099.437500;;;19.639999;23.478516
77517;BME280;66628;53.946;27.634;2023-02-28T00:07:47;100096.875000;;;19.629999;23.376953
77517;BME280;66628;53.946;27.634;2023-02-28T00:08:47;100094.375000;;;19.480000;23.267578
77517;BME280;66628;53.946;27.634;2023-02-28T00:09:47;100091.484375;;;19.520000;23.101562
77517;BME280;66628;53.946;27.634;2023-02-28T00:10:47;100092.046875;;;19.490000;23.223633
77517;BME280;66628;53.946;27.634;2023-02-28T00:11:47;100091.687500;;;19.510000;23.370117
77517;BME280;66628;53.946;27.634;2023-02-28T00:12:47;100092.218750;;;19.510000;23.515625
77517;BME280;66628;53.946;27.634;2023-02-28T00:13:47;100094.109375;;;19.420000;23.589844
77517;BME280;66628;53.946;27.634;2023-02-28T00:14:47;100090.046875;;;19.459999;23.143555
77517;BME280;66628;53.946;27.634;2023-02-28T00:15:47;100091.687500;;;19.480000;23.379883
77517;BME280;66628;53.946;27.634;2023-02-28T00:16:47;100090.515625;;;19.430000;23.466797
77517;BME280;66628;53.946;27.634;2023-02-28T00:17:47;100090.546875;;;19.420000;23.421875
77517;BME280;66628;53.946;27.634;2023-02-28T00:18:47;100089.765625;;;19.280001;23.201172
77517;BME280;66628;53.946;27.634;2023-02-28T00:19:47;100087.335938;;;19.340000;23.350586
77517;BME280;66628;53.946;27.634;2023-02-28T00:20:47;100085.054688;;;19.280001;23.514648
77517;BME280;66628;53.946;27.634;2023-02-28T00:21:47;100081.593750;;;19.240000;23.590820
77517;BME280;66628;53.946;27.634;2023-02-28T00:22:48;100079.937500;;;19.309999;23.785156
77517;BME280;66628;53.946;27.634;2023-02-28T00:23:47;100079.843750;;;19.240000;23.647461
77517;BME280;66628;53.946;27.634;2023-02-28T00:24:47;100079.625000;;;19.250000;23.345703
77517;BME280;66628;53.946;27.634;2023-02-28T00:25:47;100075.718750;;;19.230000;23.355469
77517;BME280;66628;53.946;27.634;2023-02-28T00:26:47;100076.437500;;;19.209999;23.567383
77517;BME280;66628;53.946;27.634;2023-02-28T00:27:47;100078.296875;;;19.290001;23.493164
77517;BME280;66628;53.946;27.634;2023-02-28T00:28:47;100077.429688;;;19.200001;23.969727
77517;BME280;66628;53.946;27.634;2023-02-28T00:29:47;100078.109375;;;19.260000;23.682617
77517;BME280;66628;53.946;27.634;2023-02-28T00:30:47;100083.117188;;;19.260000;23.536133
77517;BME280;66628;53.946;27.634;2023-02-28T00:31:47;100081.148438;;;19.170000;23.397461
77517;BME280;66628;53.946;27.634;2023-02-28T00:32:47;100081.132812;;;19.260000;23.727539
77517;BME280;66628;53.946;27.634;2023-02-28T00:33:47;100081.250000;;;19.129999;23.641602
77517;BME280;66628;53.946;27.634;2023-02-28T00:34:47;100077.109375;;;19.270000;23.637695
77517;BME280;66628;53.946;27.634;2023-02-28T00:35:47;100076.687500;;;19.320000;23.685547
77517;BME280;66628;53.946;27.634;2023-02-28T00:36:47;100079.750000;;;19.270000;23.996094
77517;BME280;66628;53.946;27.634;2023-02-28T00:37:47;100074.992188;;;19.330000;23.618164
77517;BME280;66628;53.946;27.634;2023-02-28T00:38:47;100076.859375;;;19.230000;23.814453
77517;BME280;66628;53.946;27.634;2023-02-28T00:39:47;100075.468750;;;19.240000;23.546875
77517;BME280;66628;53.946;27.634;2023-02-28T00:40:47;100077.859375;;;19.250000;23.323242
77517;BME280;66628;53.946;27.634;2023-02-28T00:41:47;100080.125000;;;19.139999;23.821289
77517;BME280;66628;53.946;27.634;2023-02-28T00:42:47;100081.031250;;;19.180000;23.263672
77517;BME280;66628;53.946;27.634;2023-02-28T00:43:47;100081.664062;;;19.040001;23.614258
77517;BME280;66628;53.946;27.634;2023-02-28T00:44:47;100081.640625;;;19.110001;23.338867
77517;BME280;66628;53.946;27.634;2023-02-28T00:45:47;100081.726562;;;19.080000;23.358398
77517;BME280;66628;53.946;27.634;2023-02-28T00:46:47;100082.156250;;;19.010000;23.903320
77517;BME280;66628;53.946;27.634;2023-02-28T00:47:47;100081.281250;;;19.080000;24.109375
77517;BME280;66628;53.946;27.634;2023-02-28T00:48:47;100080.796875;;;18.950001;23.788086
77517;BME280;66628;53.946;27.634;2023-02-28T00:49:47;100082.140625;;;18.980000;23.465820
77517;BME280;66628;53.946;27.634;2023-02-28T00:50:50;100080.734375;;;18.969999;23.464844
77517;BME280;66628;53.946;27.634;2023-02-28T00:51:47;100081.687500;;;18.879999;23.941406
77517;BME280;66628;53.946;27.634;2023-02-28T00:52:47;100082.718750;;;18.959999;23.967773
77517;BME280;66628;53.946;27.634;2023-02-28T00:53:47;100081.078125;;;18.850000;23.985352
77517;BME280;66628;53.946;27.634;2023-02-28T00:54:47;100082.804688;;;18.920000;24.088867
77517;BME280;66628;53.946;27.634;2023-02-28T00:55:48;100082.046875;;;18.990000;24.160156
77517;BME280;66628;53.946;27.634;2023-02-28T00:56:47;100081.484375;;;18.930000;24.011719
77517;BME280;66628;53.946;27.634;2023-02-28T00:57:47;100082.585938;;;18.930000;23.933594
77517;BME280;66628;53.946;27.634;2023-02-28T00:58:47;100078.421875;;;18.900000;23.763672
77517;BME280;66628;53.946;27.634;2023-02-28T00:59:47;100083.031250;;;18.910000;23.865234
77517;BME280;66628;53.946;27.634;2023-02-28T01:00:47;100081.132812;;;18.930000;23.563477
77517;BME280;66628;53.946;27.634;2023-02-28T01:01:47;100080.906250;;;18.850000;23.502930
77517;BME280;66628;53.946;27.634;2023-02-28T01:02:47;100079.671875;;;18.850000;23.559570
77517;BME280;66628;53.946;27.634;2023-02-28T01:03:47;100081.820312;;;18.730000;23.385742
77517;BME280;66628;53.946;27.634;2023-02-28T01:04:47;100087.289062;;;18.820000;23.590820
77517;BME280;66628;53.946;27.634;2023-02-28T01:05:47;100090.609375;;;18.910000;23.596680
77517;BME280;66628;53.946;27.634;2023-02-28T01:06:47;100090.671875;;;18.770000;23.219727
77517;BME280;66628;53.946;27.634;2023-02-28T01:07:47;100092.281250;;;18.809999;23.142578
77517;BME280;66628;53.946;27.634;2023-02-28T01:08:47;100091.242188;;;18.740000;23.172852
77517;BME280;66628;53.946;27.634;2023-02-28T01:09:47;100089.015625;;;18.709999;23.260742
77517;BME280;66628;53.946;27.634;2023-02-28T01:10:47;100092.031250;;;18.780001;23.332031
77517;BME280;66628;53.946;27.634;2023-02-28T01:11:47;100088.468750;;;18.709999;23.149414
77517;BME280;66628;53.946;27.634;2023-02-28T01:12:47;100084.531250;;;18.730000;23.083008
77517;BME280;66628;53.946;27.634;2023-02-28T01:13:47;100082.859375;;;18.660000;23.101562
77517;BME280;66628;53.946;27.634;2023-02-28T01:14:47;100085.484375;;;18.730000;23.452148
77517;BME280;66628;53.946;27.634;2023-02-28T01:15:51;100083.820312;;;18.790001;23.209961
77517;BME280;66628;53.946;27.634;2023-02-28T01:16:47;100086.859375;;;18.719999;23.082031
77517;BME280;66628;53.946;27.634;2023-02-28T01:17:47;100082.671875;;;18.809999;23.344727
77517;BME280;66628;53.946;27.634;2023-02-28T01:18:47;100082.125000;;;18.850000;23.458008
77517;BME280;66628;53.946;27.634;2023-02-28T01:19:47;100078.242188;;;18.860001;23.146484
77517;BME280;66628;53.946;27.634;2023-02-28T01:20:47;100079.468750;;;18.900000;22.823242
77517;BME280;66628;53.946;27.634;2023-02-28T01:21:47;100082.468750;;;18.850000;23.145508
77517;BME280;66628;53.946;27.634;2023-02-28T01:22:47;100076.390625;;;18.969999;23.263672
77517;BME280;66628;53.946;27.634;2023-02-28T01:23:47;100076.085938;;;18.950001;23.049805
77517;BME280;66628;53.946;27.634;2023-02-28T01:24:47;100075.570312;;;18.980000;23.164062
77517;BME280;66628;53.946;27.634;2023-02-28T01:25:47;100074.515625;;;18.950001;22.590820
77517;BME280;66628;53.946;27.634;2023-02-28T01:26:47;100073.562500;;;18.850000;22.787109
77517;BME280;66628;53.946;27.634;2023-02-28T01:27:47;100070.718750;;;18.930000;22.925781
77517;BME280;66628;53.946;27.634;2023-02-28T01:28:47;100072.414062;;;18.959999;22.859375
77517;BME280;66628;53.946;27.634;2023-02-28T01:29:47;100070.125000;;;18.910000;22.623047
77517;BME280;66628;53.946;27.634;2023-02-28T01:30:47;100069.078125;;;18.940001;22.601562
77517;BME280;66628;53.946;27.634;2023-02-28T01:31:47;100071.906250;;;18.820000;22.617188
77517;BME280;66628;53.946;27.634;2023-02-28T01:32:47;100065.273438;;;18.820000;22.494141
77517;BME280;66628;53.946;27.634;2023-02-28T01:33:47;100068.312500;;;18.750000;22.524414
77517;BME280;66628;53.946;27.634;2023-02-28T01:34:47;100066.203125;;;18.730000;22.580078
77517;BME280;66628;53.946;27.634;2023-02-28T01:35:47;100069.500000;;;18.760000;22.916992
77517;BME280;66628;53.946;27.634;2023-02-28T01:36:47;100070.281250;;;18.719999;23.138672
77517;BME280;66628;53.946;27.634;2023-02-28T01:37:47;100065.718750;;;18.770000;23.074219
77517;BME280;66628;53.946;27.634;2023-02-28T01:38:47;100064.171875;;;18.719999;22.668945
77517;BME280;66628;53.946;27.634;2023-02-28T01:39:47;100063.078125;;;18.709999;23.037109
77517;BME280;66628;53.946;27.634;2023-02-28T01:40:47;100060.437500;;;18.790001;22.840820
77517;BME280;66628;53.946;27.634;2023-02-28T01:41:47;100061.695312;;;18.690001;22.958008
77517;BME280;66628;53.946;27.634;2023-02-28T01:42:47;100061.031250;;;18.719999;23.126953
77517;BME280;66628;53.946;27.634;2023-02-28T01:45:47;100061.203125;;;18.629999;22.406250
77517;BME280;66628;53.946;27.634;2023-02-28T01:46:47;100060.515625;;;18.570000;22.167969
77517;BME280;66628;53.946;27.634;2023-02-28T01:47:47;100060.625000;;;18.549999;21.920898
77517;BME280;66628;53.946;27.634;2023-02-28T01:49:09;100064.289062;;;18.480000;22.443359
77517;BME280;66628;53.946;27.634;2023-02-28T01:49:47;100063.593750;;;18.580000;22.471680
77517;BME280;66628;53.946;27.634;2023-02-28T01:50:47;100062.328125;;;18.740000;23.609375
77517;BME280;66628;53.946;27.634;2023-02-28T01:51:48;100064.359375;;;18.910000;23.574219
77517;BME280;66628;53.946;27.634;2023-02-28T01:52:47;100065.468750;;;19.020000;23.613281
77517;BME280;66628;53.946;27.634;2023-02-28T01:53:47;100068.632812;;;19.139999;23.485352
77517;BME280;66628;53.946;27.634;2023-02-28T01:54:51;100070.828125;;;19.260000;23.502930
77517;BME280;66628;53.946;27.634;2023-02-28T01:55:48;100069.453125;;;19.370001;23.497070
77517;BME280;66628;53.946;27.634;2023-02-28T01:56:48;100071.929688;;;19.469999;23.413086
77517;BME280;66628;53.946;27.634;2023-02-28T01:57:50;100067.195312;;;19.540001;23.428711
77517;BME280;66628;53.946;27.634;2023-02-28T01:58:50;100069.945312;;;19.610001;23.331055
77517;BME280;66628;53.946;27.634;2023-02-28T01:59:57;100073.531250;;;19.700001;23.358398
77517;BME280;66628;53.946;27.634;2023-02-28T02:00:47;100069.375000;;;19.770000;23.316406
77517;BME280;66628;53.946;27.634;2023-02-28T02:01:47;100071.640625;;;19.830000;23.320312
77517;BME280;66628;53.946;27.634;2023-02-28T02:02:47;100071.007812;;;19.900000;23.233398
77517;BME280;66628;53.946;27.634;2023-02-28T02:03:50;100074.984375;;;19.940001;23.281250
77517;BME280;66628;53.946;27.634;2023-02-28T02:04:50;100074.828125;;;19.990000;23.216797
77517;BME280;66628;53.946;27.634;2023-02-28T02:05:47;100071.218750;;;20.040001;23.185547
77517;BME280;66628;53.946;27.634;2023-02-28T02:06:47;100073.218750;;;20.080000;23.220703
77517;BME280;66628;53.946;27.634;2023-02-28T02:07:48;100072.687500;;;20.129999;23.145508
77517;BME280;66628;53.946;27.634;2023-02-28T02:08:47;100073.156250;;;20.150000;23.168945
77517;BME280;66628;53.946;27.634;2023-02-28T02:09:47;100075.437500;;;20.190001;23.092773
77517;BME280;66628;53.946;27.634;2023-02-28T02:10:50;100076.171875;;;20.240000;23.128906
77517;BME280;66628;53.946;27.634;2023-02-28T02:11:47;100076.054688;;;20.260000;23.152344
77517;BME280;66628;53.946;27.634;2023-02-28T02:14:59;100075.773438;;;20.340000;23.144531
77517;BME280;66628;53.946;27.634;2023-02-28T02:17:51;100077.648438;;;20.430000;23.227539
77517;BME280;66628;53.946;27.634;2023-02-28T02:20:56;100083.234375;;;20.500000;23.141602
77517;BME280;66628;53.946;27.634;2023-02-28T02:21:54;100085.625000;;;20.530001;23.142578
77517;BME280;66628;53.946;27.634;2023-02-28T02:24:54;100088.656250;;;20.590000;23.236328
77517;BME280;66628;53.946;27.634;2023-02-28T02:26:50;100090.234375;;;20.650000;23.216797
77517;BME280;66628;53.946;27.634;2023-02-28T02:34:55;100082.687500;;;20.719999;23.175781
77517;BME280;66628;53.946;27.634;2023-02-28T02:36:51;100083.390625;;;20.780001;23.291016
77517;BME280;66628;53.946;27.634;2023-02-28T02:37:51;100080.015625;;;20.770000;23.313477
77517;BME280;66628;53.946;27.634;2023-02-28T02:38:54;100080.828125;;;20.799999;23.269531
77517;BME280;66628;53.946;27.634;2023-02-28T02:40:50;100080.117188;;;20.809999;23.315430
77517;BME280;66628;53.946;27.634;2023-02-28T02:41:49;100078.703125;;;20.830000;23.350586
77517;BME280;66628;53.946;27.634;2023-02-28T02:43:51;100082.265625;;;20.870001;23.363281
77517;BME280;66628;53.946;27.634;2023-02-28T02:44:48;100082.507812;;;20.850000;23.294922
77517;BME280;66628;53.946;27.634;2023-02-28T02:45:52;100082.515625;;;20.879999;23.319336
77517;BME280;66628;53.946;27.634;2023-02-28T02:46:47;100082.140625;;;20.900000;23.308594
77517;BME280;66628;53.946;27.634;2023-02-28T02:47:47;100083.437500;;;20.889999;23.217773
77517;BME280;66628;53.946;27.634;2023-02-28T02:48:47;100076.601562;;;20.889999;23.251953
77517;BME280;66628;53.946;27.634;2023-02-28T02:49:48;100078.429688;;;20.879999;23.352539
77517;BME280;66628;53.946;27.634;2023-02-28T02:50:51;100074.273438;;;20.889999;23.386719
77517;BME280;66628;53.946;27.634;2023-02-28T02:51:47;100075.664062;;;20.910000;23.432617
77517;BME280;66628;53.946;27.634;2023-02-28T02:52:48;100074.734375;;;20.910000;23.241211
77517;BME280;66628;53.946;27.634;2023-02-28T02:53:51;100073.265625;;;20.930000;23.501953
77517;BME280;66628;53.946;27.634;2023-02-28T02:54:48;100068.789062;;;20.920000;23.602539
77517;BME280;66628;53.946;27.634;2023-02-28T02:55:47;100068.031250;;;20.940001;23.378906
77517;BME280;66628;53.946;27.634;2023-02-28T02:56:47;100069.171875;;;20.959999;23.513672
77517;BME280;66628;53.946;27.634;2023-02-28T02:57:51;100069.593750;;;20.950001;23.458008
77517;BME280;66628;53.946;27.634;2023-02-28T02:58:47;100067.601562;;;20.969999;23.391602
77517;BME280;66628;53.946;27.634;2023-02-28T02:59:47;100067.492188;;;20.969999;23.503906
77517;BME280;66628;53.946;27.634;2023-02-28T03:00:48;100067.953125;;;20.990000;23.493164
77517;BME280;66628;53.946;27.634;2023-02-28T03:01:50;100065.429688;;;21.000000;23.449219
77517;BME280;66628;53.946;27.634;2023-02-28T03:02:47;100069.000000;;;20.990000;23.493164
77517;BME280;66628;53.946;27.634;2023-02-28T03:03:47;100065.546875;;;21.020000;23.540039
77517;BME280;66628;53.946;27.634;2023-02-28T03:04:56;100067.359375;;;20.980000;23.593750
77517;BME280;66628;53.946;27.634;2023-02-28T03:05:48;100069.101562;;;21.000000;23.482422
77517;BME280;66628;53.946;27.634;2023-02-28T03:06:47;100065.828125;;;21.020000;23.596680
77517;BME280;66628;53.946;27.634;2023-02-28T03:07:47;100063.281250;;;21.010000;23.416016
77517;BME280;66628;53.946;27.634;2023-02-28T03:08:47;100062.140625;;;21.030001;23.619141
77517;BME280;66628;53.946;27.634;2023-02-28T03:09:50;100066.843750;;;21.010000;23.618164
77517;BME280;66628;53.946;27.634;2023-02-28T03:10:50;100066.812500;;;21.030001;23.529297
77517;BME280;66628;53.946;27.634;2023-02-28T03:11:47;100067.382812;;;21.040001;23.372070
77517;BME280;66628;53.946;27.634;2023-02-28T03:12:49;100068.906250;;;21.040001;23.608398
77517;BME280;66628;53.946;27.634;2023-02-28T03:13:52;100066.023438;;;21.049999;23.665039
77517;BME280;66628;53.946;27.634;2023-02-28T03:17:55;100064.328125;;;21.070000;23.677734
77517;BME280;66628;53.946;27.634;2023-02-28T03:20:54;100063.382812;;;21.110001;23.624023
77517;BME280;66628;53.946;27.634;2023-02-28T03:24:54;100057.062500;;;21.129999;23.692383
77517;BME280;66628;53.946;27.634;2023-02-28T03:26:50;100052.523438;;;21.139999;23.659180
77517;BME280;66628;53.946;27.634;2023-02-28T03:27:51;100056.421875;;;21.160000;23.637695
77517;BME280;66628;53.946;27.634;2023-02-28T03:28:52;100051.812500;;;21.170000;23.739258
77517;BME280;66628;53.946;27.634;2023-02-28T03:29:56;100053.921875;;;21.180000;23.728516
77517;BME280;66628;53.946;27.634;2023-02-28T03:31:51;100060.312500;;;21.200001;23.842773
77517;BME280;66628;53.946;27.634;2023-02-28T03:33:49;100056.234375;;;21.209999;23.718750
77517;BME280;66628;53.946;27.634;2023-02-28T03:35:32;100060.671875;;;21.209999;23.696289
77517;BME280;66628;53.946;27.634;2023-02-28T03:36:48;100060.257812;;;21.219999;23.763672
77517;BME280;66628;53.946;27.634;2023-02-28T03:37:47;100060.960938;;;21.219999;23.573242
77517;BME280;66628;53.946;27.634;2023-02-28T03:39:07;100058.460938;;;21.219999;23.821289
77517;BME280;66628;53.946;27.634;2023-02-28T03:39:47;100059.093750;;;21.230000;23.742188
77517;BME280;66628;53.946;27.634;2023-02-28T03:40:51;100059.843750;;;21.240000;23.664062
77517;BME280;66628;53.946;27.634;2023-02-28T03:41:48;100061.015625;;;21.240000;23.619141
77517;BME280;66628;53.946;27.634;2023-02-28T03:42:47;100063.875000;;;21.250000;23.743164
77517;BME280;66628;53.946;27.634;2023-02-28T03:44:05;100064.406250;;;21.250000;23.844727
77517;BME280;66628;53.946;27.634;2023-02-28T03:45:47;100063.328125;;;21.260000;23.901367
77517;BME280;66628;53.946;27.634;2023-02-28T03:46:49;100062.109375;;;21.270000;23.857422
77517;BME280;66628;53.946;27.634;2023-02-28T03:47:51;100059.906250;;;21.270000;23.812500
77517;BME280;66628;53.946;27.634;2023-02-28T03:49:51;100053.750000;;;21.270000;23.721680
77517;BME280;66628;53.946;27.634;2023-02-28T03:50:51;100046.226562;;;21.280001;23.677734
77517;BME280;66628;53.946;27.634;2023-02-28T03:51:47;100048.437500;;;21.280001;23.745117
77517;BME280;66628;53.946;27.634;2023-02-28T03:52:48;100044.648438;;;21.280001;23.857422
77517;BME280;66628;53.946;27.634;2023-02-28T03:53:50;100044.515625;;;21.290001;23.834961
77517;BME280;66628;53.946;27.634;2023-02-28T03:54:50;100043.984375;;;21.290001;23.790039
77517;BME280;66628;53.946;27.634;2023-02-28T03:55:48;100042.812500;;;21.309999;23.791992
77517;BME280;66628;53.946;27.634;2023-02-28T03:56:48;100038.687500;;;21.290001;23.711914
77517;BME280;66628;53.946;27.634;2023-02-28T03:59:47;100037.062500;;;21.290001;23.835938
77517;BME280;66628;53.946;27.634;2023-02-28T04:00:48;100028.500000;;;21.309999;23.836914
77517;BME280;66628;53.946;27.634;2023-02-28T04:01:47;100027.406250;;;21.299999;23.802734
77517;BME280;66628;53.946;27.634;2023-02-28T04:02:47;100028.406250;;;21.309999;23.893555
77517;BME280;66628;53.946;27.634;2023-02-28T04:03:47;100028.140625;;;21.330000;23.860352
77517;BME280;66628;53.946;27.634;2023-02-28T04:04:47;100023.828125;;;21.320000;23.837891
77517;BME280;66628;53.946;27.634;2023-02-28T04:05:49;100030.843750;;;21.320000;23.871094
77517;BME280;66628;53.946;27.634;2023-02-28T04:06:49;100032.187500;;;21.340000;23.961914
77517;BME280;66628;53.946;27.634;2023-02-28T04:07:47;100026.632812;;;21.340000;23.759766
77517;BME280;66628;53.946;27.634;2023-02-28T04:08:47;100031.125000;;;21.340000;23.962891
77517;BME280;66628;53.946;27.634;2023-02-28T04:09:47;100034.734375;;;21.350000;23.974609
77517;BME280;66628;53.946;27.634;2023-02-28T04:10:48;100034.437500;;;21.350000;24.041992
77517;BME280;66628;53.946;27.634;2023-02-28T04:11:49;100030.296875;;;21.350000;23.962891
77517;BME280;66628;53.946;27.634;2023-02-28T04:12:47;100034.984375;;;21.350000;24.120117
77517;BME280;66628;53.946;27.634;2023-02-28T04:13:47;100029.765625;;;21.379999;23.998047
77517;BME280;66628;53.946;27.634;2023-02-28T04:14:47;100032.968750;;;21.370001;23.896484
77517;BME280;66628;53.946;27.634;2023-02-28T04:15:47;100027.203125;;;21.379999;24.110352
77517;BME280;66628;53.946;27.634;2023-02-28T04:16:47;100032.289062;;;21.379999;24.020508
77517;BME280;66628;53.946;27.634;2023-02-28T04:17:47;100033.968750;;;21.370001;24.087891
77517;BME280;66628;53.946;27.634;2023-02-28T04:18:47;100033.492188;;;21.370001;24.121094
77517;BME280;66628;53.946;27.634;2023-02-28T04:19:47;100036.125000;;;21.379999;24.077148
77517;BME280;66628;53.946;27.634;2023-02-28T04:20:47;100035.968750;;;21.379999;24.008789
77517;BME280;66628;53.946;27.634;2023-02-28T04:21:48;100032.265625;;;21.370001;23.929688
77517;BME280;66628;53.946;27.634;2023-02-28T04:22:47;100032.625000;;;21.379999;23.998047
77517;BME280;66628;53.946;27.634;2023-02-28T04:23:47;100032.843750;;;21.389999;23.965820
77517;BME280;66628;53.946;27.634;2023-02-28T04:24:47;100032.625000;;;21.379999;24.087891
77517;BME280;66628;53.946;27.634;2023-02-28T04:25:47;100027.609375;;;21.379999;24.087891
77517;BME280;66628;53.946;27.634;2023-02-28T04:26:48;100023.562500;;;21.389999;24.099609
77517;BME280;66628;53.946;27.634;2023-02-28T04:27:47;100024.265625;;;21.389999;24.223633
77517;BME280;66628;53.946;27.634;2023-02-28T04:28:47;100027.125000;;;21.370001;24.087891
77517;BME280;66628;53.946;27.634;2023-02-28T04:29:47;100026.421875;;;21.370001;24.222656
77517;BME280;66628;53.946;27.634;2023-02-28T04:30:47;100030.062500;;;21.379999;24.155273
77517;BME280;66628;53.946;27.634;2023-02-28T04:31:47;100028.250000;;;21.379999;24.087891
77517;BME280;66628;53.946;27.634;2023-02-28T04:32:47;100034.445312;;;21.379999;24.222656
77517;BME280;66628;53.946;27.634;2023-02-28T04:33:47;100038.703125;;;21.379999;24.279297
77517;BME280;66628;53.946;27.634;2023-02-28T04:34:47;100037.703125;;;21.379999;24.414062
77517;BME280;66628;53.946;27.634;2023-02-28T04:35:47;100036.703125;;;21.389999;24.483398
77517;BME280;66628;53.946;27.634;2023-02-28T04:36:47;100038.218750;;;21.410000;24.393555
77517;BME280;66628;53.946;27.634;2023-02-28T04:37:47;100031.960938;;;21.410000;24.371094
77517;BME280;66628;53.946;27.634;2023-02-28T04:38:47;100035.343750;;;21.430000;24.416992
77517;BME280;66628;53.946;27.634;2023-02-28T04:39:47;100034.828125;;;21.440001;24.440430
77517;BME280;66628;53.946;27.634;2023-02-28T04:40:47;100036.632812;;;21.440001;24.462891
77517;BME280;66628;53.946;27.634;2023-02-28T04:41:47;100037.039062;;;21.450001;24.384766
77517;BME280;66628;53.946;27.634;2023-02-28T04:42:47;100036.218750;;;21.450001;24.429688
77517;BME280;66628;53.946;27.634;2023-02-28T04:43:47;100036.921875;;;21.450001;24.485352
77517;BME280;66628;53.946;27.634;2023-02-28T04:44:47;100038.140625;;;21.469999;24.565430
77517;BME280;66628;53.946;27.634;2023-02-28T04:45:49;100030.843750;;;21.459999;24.418945
77517;BME280;66628;53.946;27.634;2023-02-28T04:46:47;100037.656250;;;21.480000;24.520508
77517;BME280;66628;53.946;27.634;2023-02-28T04:47:47;100033.859375;;;21.480000;24.509766
77517;BME280;66628;53.946;27.634;2023-02-28T04:48:47;100034.031250;;;21.480000;24.464844
77517;BME280;66628;53.946;27.634;2023-02-28T04:49:47;100029.359375;;;21.469999;24.419922
77517;BME280;66628;53.946;27.634;2023-02-28T04:50:47;100031.296875;;;21.469999;24.509766
77517;BME280;66628;53.946;27.634;2023-02-28T04:51:47;100026.968750;;;21.480000;24.487305
77517;BME280;66628;53.946;27.634;2023-02-28T04:52:47;100033.031250;;;21.480000;24.509766
77517;BME280;66628;53.946;27.634;2023-02-28T04:53:47;100034.781250;;;21.480000;24.499023
77517;BME280;66628;53.946;27.634;2023-02-28T04:54:47;100038.515625;;;21.500000;24.488281
77517;BME280;66628;53.946;27.634;2023-02-28T04:55:47;100034.156250;;;21.490000;24.612305
77517;BME280;66628;53.946;27.634;2023-02-28T04:56:47;100033.460938;;;21.490000;24.510742
77517;BME280;66628;53.946;27.634;2023-02-28T04:57:47;100035.085938;;;21.510000;24.579102
77517;BME280;66628;53.946;27.634;2023-02-28T04:58:47;100033.914062;;;21.510000;24.545898
77517;BME280;66628;53.946;27.634;2023-02-28T04:59:47;100034.312500;;;21.500000;24.544922
77517;BME280;66628;53.946;27.634;2023-02-28T05:00:47;100034.914062;;;21.510000;24.523438
77517;BME280;66628;53.946;27.634;2023-02-28T05:01:47;100036.085938;;;21.500000;24.579102
77517;BME280;66628;53.946;27.634;2023-02-28T05:02:47;100035.843750;;;21.510000;24.579102
77517;BME280;66628;53.946;27.634;2023-02-28T05:03:47;100039.703125;;;21.510000;24.624023
77517;BME280;66628;53.946;27.634;2023-02-28T05:04:47;100039.914062;;;21.520000;24.511719